createdAt,value
2022-11-08T00:00:05.196Z,100792.41
2022-11-08T00:02:31.712Z,100787.34
2022-11-08T00:04:58.458Z,100779.56
2022-11-08T00:07:43.283Z,100785.78
2022-11-08T00:10:28.581Z,100792.50
2022-11-08T00:13:13.576Z,100776.69
2022-11-08T00:15:39.932Z,100784.91
2022-11-08T00:18:07.583Z,100799.53
2022-11-08T00:20:34.525Z,100795.16
2022-11-08T00:23:01.361Z,100798.03
2022-11-08T00:25:27.793Z,100784.75
2022-11-08T00:27:57.537Z,100803.34
2022-11-08T00:30:23.885Z,100785.59
2022-11-08T00:32:50.321Z,100794.16
2022-11-08T00:35:16.678Z,100802.00
2022-11-08T00:37:43.523Z,100805.38
2022-11-08T00:40:10.555Z,100799.72
2022-11-08T00:42:36.973Z,100803.03
2022-11-08T00:45:03.689Z,100802.56
2022-11-08T00:47:30.136Z,100797.03
2022-11-08T00:49:56.594Z,100799.22
2022-11-08T00:52:23.087Z,100802.59
2022-11-08T00:54:49.474Z,100795.72
2022-11-08T00:57:16.602Z,100805.00
2022-11-08T00:59:43.096Z,100791.06
2022-11-08T01:02:09.500Z,100796.78
2022-11-08T01:04:36.076Z,100780.50
2022-11-08T01:07:02.787Z,100797.47
2022-11-08T01:09:29.216Z,100774.97
2022-11-08T01:11:55.646Z,100789.41
2022-11-08T01:14:22.030Z,100808.22
2022-11-08T01:16:48.406Z,100797.47
2022-11-08T01:19:14.795Z,100783.38
2022-11-08T01:21:41.566Z,100786.91
2022-11-08T01:24:08.396Z,100783.53
2022-11-08T01:26:34.917Z,100810.44
2022-11-08T01:29:01.419Z,100776.22
2022-11-08T01:31:30.598Z,100781.41
2022-11-08T01:33:58.047Z,100796.50
2022-11-08T01:36:26.419Z,100803.38
2022-11-08T01:38:53.501Z,100783.59
2022-11-08T01:41:22.087Z,100780.72
2022-11-08T01:43:49.874Z,100799.34
2022-11-08T01:46:19.234Z,100786.09
2022-11-08T01:48:58.720Z,100787.78
2022-11-08T01:51:33.506Z,100787.13
2022-11-08T01:54:03.131Z,100784.94
2022-11-08T01:56:29.936Z,100774.41
2022-11-08T01:58:57.713Z,100794.22
2022-11-08T02:01:24.414Z,100790.88
2022-11-08T02:03:51.478Z,100784.00
2022-11-08T02:06:18.683Z,100781.63
2022-11-08T02:08:46.079Z,100790.72
2022-11-08T02:11:17.672Z,100783.16
2022-11-08T02:13:44.326Z,100757.84
2022-11-08T02:16:15.926Z,100772.91
2022-11-08T02:18:44.896Z,100772.22
2022-11-08T02:21:35.957Z,100774.56
2022-11-08T02:24:07.966Z,100769.38
2022-11-08T02:26:36.215Z,100771.50
2022-11-08T02:29:22.128Z,100771.50
2022-11-08T02:31:48.570Z,100774.53
2022-11-08T02:34:15.318Z,100765.13
2022-11-08T02:36:44.035Z,100774.03
2022-11-08T02:39:10.517Z,100761.25
2022-11-08T02:41:36.938Z,100773.00
2022-11-08T02:44:03.426Z,100750.50
2022-11-08T02:46:29.835Z,100771.09
2022-11-08T02:48:56.703Z,100770.94
2022-11-08T02:51:23.094Z,100767.06
2022-11-08T02:53:49.486Z,100768.56
2022-11-08T02:56:16.245Z,100761.50
2022-11-08T02:58:42.636Z,100763.34
2022-11-08T03:01:09.028Z,100761.31
2022-11-08T03:03:35.421Z,100778.63
2022-11-08T03:06:01.908Z,100767.25
2022-11-08T03:08:28.294Z,100766.56
2022-11-08T03:10:54.672Z,100765.41
2022-11-08T03:13:21.036Z,100769.94
2022-11-08T03:15:47.446Z,100774.47
2022-11-08T03:18:13.826Z,100766.88
2022-11-08T03:20:40.402Z,100765.56
2022-11-08T03:23:07.057Z,100757.00
2022-11-08T03:25:34.854Z,100768.75
2022-11-08T03:28:05.768Z,100759.69
2022-11-08T03:30:33.129Z,100766.78
2022-11-08T03:32:59.728Z,100763.78
2022-11-08T03:35:26.529Z,100767.81
2022-11-08T03:37:55.396Z,100766.50
2022-11-08T03:40:22.961Z,100765.50
2022-11-08T03:42:49.631Z,100763.16
2022-11-08T03:45:16.378Z,100766.41
2022-11-08T03:47:44.208Z,100773.63
2022-11-08T03:50:12.095Z,100766.91
2022-11-08T03:52:46.584Z,100771.28
2022-11-08T03:55:13.236Z,100762.25
2022-11-08T03:57:40.879Z,100763.59
2022-11-08T04:00:10.600Z,100763.25
2022-11-08T04:02:37.324Z,100763.59
2022-11-08T04:05:05.028Z,100766.44
2022-11-08T04:07:31.539Z,100783.72
2022-11-08T04:09:57.966Z,100763.28
2022-11-08T04:12:42.829Z,100755.56
2022-11-08T04:15:16.554Z,100770.81
2022-11-08T04:18:04.515Z,100772.19
2022-11-08T04:20:50.317Z,100766.31
2022-11-08T04:23:17.925Z,100767.81
2022-11-08T04:25:45.062Z,100766.84
2022-11-08T04:28:12.010Z,100757.59
2022-11-08T04:30:38.381Z,100760.78
2022-11-08T04:33:05.212Z,100755.72
2022-11-08T04:35:32.127Z,100748.84
2022-11-08T04:38:02.146Z,100750.69
2022-11-08T04:40:31.042Z,100764.78
2022-11-08T04:42:57.490Z,100765.97
2022-11-08T04:45:23.904Z,100765.44
2022-11-08T04:47:50.260Z,100752.38
2022-11-08T04:50:16.702Z,100751.69
2022-11-08T04:52:43.714Z,100758.59
2022-11-08T04:55:10.471Z,100755.03
2022-11-08T04:57:36.815Z,100762.25
2022-11-08T05:00:04.156Z,100756.56
2022-11-08T05:02:30.608Z,100750.00
2022-11-08T05:04:57.948Z,100745.97
2022-11-08T05:07:24.427Z,100756.03
2022-11-08T05:09:50.911Z,100761.75
2022-11-08T05:12:17.257Z,100746.44
2022-11-08T05:14:43.599Z,100754.19
2022-11-08T05:17:09.942Z,100742.59
2022-11-08T05:19:54.809Z,100752.84
2022-11-08T05:22:39.796Z,100755.69
2022-11-08T05:25:06.701Z,100757.03
2022-11-08T05:27:34.126Z,100746.78
2022-11-08T05:30:00.531Z,100740.25
2022-11-08T05:32:27.051Z,100741.41
2022-11-08T05:34:53.464Z,100745.41
2022-11-08T05:37:19.896Z,100747.44
2022-11-08T05:39:46.272Z,100736.00
2022-11-08T05:42:12.673Z,100736.53
2022-11-08T05:44:39.005Z,100734.34
2022-11-08T05:47:05.478Z,100734.50
2022-11-08T05:49:31.873Z,100734.16
2022-11-08T05:51:58.527Z,100728.47
2022-11-08T05:54:24.870Z,100734.84
2022-11-08T05:56:51.244Z,100726.59
2022-11-08T05:59:17.609Z,100720.56
2022-11-08T06:01:44.168Z,100740.69
2022-11-08T06:04:10.702Z,100723.25
2022-11-08T06:06:37.054Z,100734.81
2022-11-08T06:09:03.527Z,100724.91
2022-11-08T06:11:29.876Z,100731.28
2022-11-08T06:13:56.538Z,100732.78
2022-11-08T06:16:25.009Z,100732.28
2022-11-08T06:18:51.495Z,100730.28
2022-11-08T06:21:20.138Z,100734.94
2022-11-08T06:23:47.403Z,100735.94
2022-11-08T06:26:14.141Z,100730.44
2022-11-08T06:28:40.538Z,100718.00
2022-11-08T06:31:08.010Z,100737.97
2022-11-08T06:33:34.788Z,100717.34
2022-11-08T06:36:01.597Z,100728.28
2022-11-08T06:38:28.528Z,100719.72
2022-11-08T06:40:54.947Z,100725.09
2022-11-08T06:43:21.733Z,100713.69
2022-11-08T06:45:48.520Z,100725.44
2022-11-08T06:48:15.113Z,100726.44
2022-11-08T06:50:42.437Z,100724.91
2022-11-08T06:53:11.865Z,100725.91
2022-11-08T06:55:38.328Z,100730.81
2022-11-08T06:58:04.889Z,100719.88
2022-11-08T07:00:31.470Z,100726.75
2022-11-08T07:03:00.460Z,100714.53
2022-11-08T07:05:28.249Z,100719.41
2022-11-08T07:07:56.919Z,100712.69
2022-11-08T07:10:25.514Z,100718.56
2022-11-08T07:13:06.492Z,100735.00
2022-11-08T07:15:34.960Z,100719.59
2022-11-08T07:18:07.365Z,100718.75
2022-11-08T07:20:34.606Z,100721.94
2022-11-08T07:23:01.346Z,100721.28
2022-11-08T07:25:29.512Z,100725.44
2022-11-08T07:28:02.182Z,100717.41
2022-11-08T07:30:28.914Z,100717.09
2022-11-08T07:32:56.525Z,100706.34
2022-11-08T07:35:24.149Z,100723.66
2022-11-08T07:37:50.832Z,100714.75
2022-11-08T07:40:17.246Z,100691.28
2022-11-08T07:43:10.222Z,100706.22
2022-11-08T07:45:29.968Z,100714.59
2022-11-08T07:48:10.619Z,100708.91
2022-11-08T07:50:38.941Z,100715.31
2022-11-08T07:53:05.393Z,100711.59
2022-11-08T07:55:31.787Z,100699.69
2022-11-08T07:58:03.886Z,100709.59
2022-11-08T08:00:31.640Z,100705.56
2022-11-08T08:02:59.605Z,100709.28
2022-11-08T08:05:27.560Z,100709.75
2022-11-08T08:07:57.812Z,100695.50
2022-11-08T08:10:24.210Z,100705.41
2022-11-08T08:12:50.659Z,100695.19
2022-11-08T08:15:18.070Z,100699.38
2022-11-08T08:17:44.603Z,100704.09
2022-11-08T08:20:12.067Z,100710.44
2022-11-08T08:22:49.742Z,100715.97
2022-11-08T08:25:17.350Z,100700.88
2022-11-08T08:27:51.210Z,100703.50
2022-11-08T08:30:18.571Z,100695.91
2022-11-08T08:32:53.547Z,100709.50
2022-11-08T08:35:28.959Z,100703.47
2022-11-08T08:37:58.972Z,100704.44
2022-11-08T08:40:25.608Z,100708.09
2022-11-08T08:42:52.038Z,100702.50
2022-11-08T08:45:18.417Z,100696.31
2022-11-08T08:47:45.092Z,100693.38
2022-11-08T08:50:11.780Z,100682.13
2022-11-08T08:52:38.182Z,100684.41
2022-11-08T08:55:04.954Z,100691.28
2022-11-08T08:57:31.313Z,100684.16
2022-11-08T09:02:44.738Z,100656.66
2022-11-08T09:05:13.271Z,100661.75
2022-11-08T09:07:40.520Z,100671.44
2022-11-08T09:10:08.764Z,100660.41
2022-11-08T09:12:35.550Z,100665.16
2022-11-08T09:15:02.655Z,100652.38
2022-11-08T09:17:29.246Z,100656.09
2022-11-08T09:19:57.377Z,100664.94
2022-11-08T09:22:24.299Z,100658.63
2022-11-08T09:24:51.298Z,100646.81
2022-11-08T09:27:17.701Z,100643.31
2022-11-08T09:29:44.087Z,100639.44
2022-11-08T09:32:11.465Z,100644.16
2022-11-08T09:34:37.881Z,100645.47
2022-11-08T09:37:04.294Z,100644.91
2022-11-08T09:39:30.715Z,100647.22
2022-11-08T09:42:24.249Z,100651.38
2022-11-08T09:45:24.444Z,100640.03
2022-11-08T09:48:05.249Z,100646.69
2022-11-08T09:50:46.290Z,100643.00
2022-11-08T09:53:24.012Z,100641.94
2022-11-08T09:55:56.816Z,100638.63
2022-11-08T09:58:35.461Z,100636.53
2022-11-08T10:01:03.025Z,100639.47
2022-11-08T10:03:29.908Z,100625.34
2022-11-08T10:06:29.312Z,100630.53
2022-11-08T10:09:30.166Z,100634.06
2022-11-08T10:12:09.419Z,100606.84
2022-11-08T10:15:00.746Z,100610.41
2022-11-08T10:17:54.874Z,100600.38
2022-11-08T10:20:35.290Z,100601.47
2022-11-08T10:23:07.751Z,100596.06
2022-11-08T10:25:45.300Z,100587.84
2022-11-08T10:28:17.918Z,100578.47
2022-11-08T10:30:48.618Z,100578.59
2022-11-08T10:33:22.397Z,100561.19
2022-11-08T10:36:01.771Z,100567.56
2022-11-08T10:38:35.963Z,100560.16
2022-11-08T10:41:44.139Z,100554.22
2022-11-08T10:44:19.933Z,100553.84
2022-11-08T10:46:53.837Z,100544.31
2022-11-08T10:49:22.534Z,100538.13
2022-11-08T10:51:55.512Z,100540.44
2022-11-08T10:54:50.060Z,100531.53
2022-11-08T10:57:31.535Z,100521.16
2022-11-08T11:00:27.450Z,100526.84
2022-11-08T11:02:55.818Z,100525.41
2022-11-08T11:05:36.995Z,100524.63
2022-11-08T11:08:05.226Z,100526.69
2022-11-08T11:10:33.588Z,100535.22
2022-11-08T11:13:01.643Z,100523.00
2022-11-08T11:15:46.626Z,100513.75
2022-11-08T11:18:31.324Z,100510.22
2022-11-08T11:21:13.525Z,100502.31
2022-11-08T11:23:46.975Z,100509.00
2022-11-08T11:26:34.475Z,100504.47
2022-11-08T11:29:03.794Z,100508.41
2022-11-08T11:31:32.473Z,100511.75
2022-11-08T11:33:59.758Z,100502.59
2022-11-08T11:36:30.031Z,100523.44
2022-11-08T11:39:18.812Z,100508.69
2022-11-08T11:42:17.796Z,100496.63
2022-11-08T11:45:05.650Z,100507.88
2022-11-08T11:47:33.898Z,100502.66
2022-11-08T11:50:10.586Z,100497.25
2022-11-08T11:52:36.994Z,100497.88
2022-11-08T11:55:03.458Z,100451.47
2022-11-08T11:57:48.267Z,100476.66
2022-11-08T12:00:15.935Z,100456.03
2022-11-08T12:03:11.649Z,100466.66
2022-11-08T12:05:58.297Z,100458.97
2022-11-08T12:08:51.521Z,100452.72
2022-11-08T12:11:55.655Z,100457.06
2022-11-08T12:14:35.750Z,100432.50
2022-11-08T12:17:04.888Z,100439.19
2022-11-08T12:20:04.995Z,100432.72
2022-11-08T12:22:43.560Z,100435.41
2022-11-08T12:25:25.080Z,100432.91
2022-11-08T12:27:58.120Z,100426.91
2022-11-08T12:30:51.017Z,100433.56
2022-11-08T12:33:20.953Z,100429.34
2022-11-08T12:36:02.518Z,100417.72
2022-11-08T12:38:56.512Z,100430.78
2022-11-08T12:41:44.418Z,100427.47
2022-11-08T12:44:20.200Z,100430.56
2022-11-08T12:47:16.415Z,100432.88
2022-11-08T12:50:09.573Z,100415.75
2022-11-08T12:52:44.716Z,100424.50
2022-11-08T12:55:23.892Z,100419.09
2022-11-08T12:57:53.866Z,100406.41
2022-11-08T13:00:20.965Z,100394.75
2022-11-08T13:03:06.341Z,100415.00
2022-11-08T13:05:39.196Z,100401.63
2022-11-08T13:08:23.348Z,100412.91
2022-11-08T13:11:11.522Z,100413.88
2022-11-08T13:13:50.021Z,100408.94
2022-11-08T13:16:22.256Z,100401.63
2022-11-08T13:18:53.204Z,100402.88
2022-11-08T13:21:25.900Z,100409.53
2022-11-08T13:23:53.769Z,100390.22
2022-11-08T13:26:26.302Z,100402.31
2022-11-08T13:28:53.392Z,100393.78
2022-11-08T13:31:26.624Z,100374.69
2022-11-08T13:34:11.881Z,100401.72
2022-11-08T13:37:02.787Z,100388.19
2022-11-08T13:40:02.820Z,100387.16
2022-11-08T13:42:30.943Z,100386.34
2022-11-08T13:45:10.977Z,100387.38
2022-11-08T13:47:38.443Z,100377.38
2022-11-08T13:50:29.574Z,100389.88
2022-11-08T13:53:20.541Z,100383.59
2022-11-08T13:55:49.972Z,100379.66
2022-11-08T13:58:39.652Z,100382.56
2022-11-08T14:01:18.392Z,100378.78
2022-11-08T14:03:47.683Z,100371.69
2022-11-08T14:06:23.660Z,100375.25
2022-11-08T14:08:57.882Z,100376.63
2022-11-08T14:11:53.347Z,100380.59
2022-11-08T14:14:44.942Z,100392.25
2022-11-08T14:17:52.252Z,100382.88
2022-11-08T14:20:41.572Z,100375.41
2022-11-08T14:23:27.515Z,100377.03
2022-11-08T14:26:01.251Z,100369.34
2022-11-08T14:28:36.629Z,100362.69
2022-11-08T14:31:27.377Z,100363.13
2022-11-08T14:33:55.071Z,100355.59
2022-11-08T14:36:22.643Z,100364.13
2022-11-08T14:38:57.919Z,100373.69
2022-11-08T14:41:26.874Z,100380.78
2022-11-08T14:43:55.592Z,100381.16
2022-11-08T14:46:30.920Z,100356.63
2022-11-08T14:48:58.035Z,100370.75
2022-11-08T14:51:26.260Z,100372.44
2022-11-08T14:53:54.804Z,100370.38
2022-11-08T14:56:24.311Z,100367.88
2022-11-08T14:58:52.892Z,100370.38
2022-11-08T15:01:25.723Z,100359.34
2022-11-08T15:04:20.715Z,100357.91
2022-11-08T15:06:51.362Z,100329.78
2022-11-08T15:09:27.363Z,100337.50
2022-11-08T15:11:59.686Z,100327.56
2022-11-08T15:14:30.091Z,100324.81
2022-11-08T15:17:02.887Z,100331.25
2022-11-08T15:19:34.510Z,100330.03
2022-11-08T15:22:22.543Z,100328.34
2022-11-08T15:25:00.487Z,100333.13
2022-11-08T15:27:27.337Z,100332.69
2022-11-08T15:30:01.320Z,100339.75
2022-11-08T15:32:33.598Z,100335.81
2022-11-08T15:35:00.026Z,100323.56
2022-11-08T15:37:38.357Z,100325.84
2022-11-08T15:40:20.182Z,100324.59
2022-11-08T15:42:50.066Z,100332.69
2022-11-08T15:45:16.357Z,100336.22
2022-11-08T15:47:42.641Z,100331.47
2022-11-08T15:50:23.499Z,100330.41
2022-11-08T15:52:55.110Z,100342.44
2022-11-08T15:55:24.201Z,100327.53
2022-11-08T15:57:51.245Z,100326.06
2022-11-08T16:00:26.516Z,100330.63
2022-11-08T16:02:53.019Z,100301.28
2022-11-08T16:05:25.075Z,100326.06
2022-11-08T16:07:52.168Z,100307.13
2022-11-08T16:10:31.237Z,100324.59
2022-11-08T16:13:00.782Z,100332.25
2022-11-08T16:15:30.179Z,100320.59
2022-11-08T16:17:57.061Z,100323.09
2022-11-08T16:20:33.903Z,100325.81
2022-11-08T16:23:02.698Z,100304.41
2022-11-08T16:25:33.906Z,100304.63
2022-11-08T16:28:17.668Z,100308.78
2022-11-08T16:30:46.795Z,100313.16
2022-11-08T16:33:20.134Z,100272.22
2022-11-08T16:35:46.882Z,100251.03
2022-11-08T16:38:13.303Z,100287.38
2022-11-08T16:40:42.306Z,100294.47
2022-11-08T16:43:12.008Z,100295.28
2022-11-08T16:46:03.663Z,100301.53
2022-11-08T16:48:26.963Z,100307.13
2022-11-08T16:51:00.394Z,100318.34
2022-11-08T16:53:27.054Z,100316.25
2022-11-08T16:55:53.501Z,100314.63
2022-11-08T16:58:20.189Z,100325.41
2022-11-08T17:00:46.896Z,100325.63
2022-11-08T17:03:20.871Z,100313.56
2022-11-08T17:05:47.770Z,100318.31
2022-11-08T17:08:14.385Z,100324.75
2022-11-08T17:10:41.967Z,100327.25
2022-11-08T17:13:13.158Z,100326.84
2022-11-08T17:15:39.608Z,100326.59
2022-11-08T17:18:06.276Z,100336.38
2022-11-08T17:20:32.710Z,100340.09
2022-11-08T17:22:59.094Z,100330.53
2022-11-08T17:25:25.683Z,100340.94
2022-11-08T17:27:52.927Z,100340.09
2022-11-08T17:30:25.417Z,100339.84
2022-11-08T17:32:53.640Z,100342.78
2022-11-08T17:35:20.194Z,100340.47
2022-11-08T17:37:46.620Z,100343.19
2022-11-08T17:40:13.049Z,100341.72
2022-11-08T17:42:39.553Z,100330.28
2022-11-08T17:45:08.749Z,100333.16
2022-11-08T17:47:36.333Z,100338.09
2022-11-08T17:50:03.160Z,100344.19
2022-11-08T17:52:29.575Z,100340.66
2022-11-08T17:54:55.980Z,100340.44
2022-11-08T17:57:22.480Z,100348.03
2022-11-08T17:59:49.050Z,100338.25
2022-11-08T18:02:15.583Z,100338.84
2022-11-08T18:04:42.024Z,100354.16
2022-11-08T18:07:08.616Z,100340.88
2022-11-08T18:09:35.291Z,100346.31
2022-11-08T18:12:01.633Z,100345.44
2022-11-08T18:14:28.976Z,100357.25
2022-11-08T18:16:56.159Z,100351.66
2022-11-08T18:19:23.012Z,100347.50
2022-11-08T18:21:49.407Z,100343.91
2022-11-08T18:24:16.599Z,100341.22
2022-11-08T18:26:43.068Z,100349.50
2022-11-08T18:29:09.680Z,100329.50
2022-11-08T18:31:36.806Z,100360.91
2022-11-08T18:34:03.458Z,100333.69
2022-11-08T18:36:30.916Z,100350.25
2022-11-08T18:38:59.817Z,100348.56
2022-11-08T18:41:29.495Z,100351.47
2022-11-08T18:43:57.533Z,100358.72
2022-11-08T18:46:26.069Z,100339.63
2022-11-08T18:48:53.105Z,100349.56
2022-11-08T18:51:21.908Z,100339.63
2022-11-08T18:53:48.739Z,100354.34
2022-11-08T18:56:16.196Z,100345.66
2022-11-08T18:58:44.310Z,100331.47
2022-11-08T19:01:10.880Z,100352.69
2022-11-08T19:03:37.709Z,100329.88
2022-11-08T19:06:04.485Z,100315.31
2022-11-08T19:08:31.608Z,100323.25
2022-11-08T19:11:00.501Z,100327.09
2022-11-08T19:13:28.985Z,100336.50
2022-11-08T19:16:06.507Z,100339.47
2022-11-08T19:18:34.566Z,100347.34
2022-11-08T19:21:06.578Z,100354.47
2022-11-08T19:23:33.564Z,100344.53
2022-11-08T19:26:10.167Z,100346.59
2022-11-08T19:28:38.996Z,100346.78
2022-11-08T19:31:06.344Z,100359.25
2022-11-08T19:33:33.707Z,100351.38
2022-11-08T19:36:02.131Z,100343.09
2022-11-08T19:38:28.514Z,100343.09
2022-11-08T19:40:54.861Z,100350.59
2022-11-08T19:43:21.509Z,100332.06
2022-11-08T19:45:53.278Z,100331.66
2022-11-08T19:48:20.521Z,100332.94
2022-11-08T19:50:47.719Z,100344.16
2022-11-08T19:53:14.499Z,100347.69
2022-11-08T19:55:40.845Z,100346.88
2022-11-08T19:58:07.343Z,100344.34
2022-11-08T20:00:33.794Z,100345.50
2022-11-08T20:03:00.193Z,100347.22
2022-11-08T20:05:28.405Z,100348.66
2022-11-08T20:07:54.768Z,100350.13
2022-11-08T20:10:21.304Z,100338.63
2022-11-08T20:12:48.000Z,100339.84
2022-11-08T20:15:14.722Z,100361.28
2022-11-08T20:17:41.136Z,100357.13
2022-11-08T20:20:08.026Z,100351.66
2022-11-08T20:22:34.489Z,100352.06
2022-11-08T20:25:00.870Z,100367.91
2022-11-08T20:27:27.300Z,100371.16
2022-11-08T20:29:53.855Z,100368.09
2022-11-08T20:32:20.324Z,100366.16
2022-11-08T20:34:46.801Z,100373.88
2022-11-08T20:37:14.623Z,100363.72
2022-11-08T20:39:41.171Z,100363.06
2022-11-08T20:42:07.515Z,100377.22
2022-11-08T20:44:33.919Z,100376.94
2022-11-08T20:47:05.535Z,100382.59
2022-11-08T20:49:32.832Z,100361.19
2022-11-08T20:51:59.383Z,100368.25
2022-11-08T20:54:25.758Z,100363.69
2022-11-08T20:56:52.339Z,100361.19
2022-11-08T20:59:19.273Z,100367.63
2022-11-08T21:01:45.739Z,100363.09
2022-11-08T21:04:12.639Z,100345.59
2022-11-08T21:06:39.197Z,100358.50
2022-11-08T21:09:32.416Z,100364.66
2022-11-08T21:11:53.373Z,100377.75
2022-11-08T21:14:19.801Z,100374.59
2022-11-08T21:17:15.108Z,100371.53
2022-11-08T21:19:32.524Z,100368.75
2022-11-08T21:22:14.997Z,100370.19
2022-11-08T21:24:43.067Z,100375.25
2022-11-08T21:27:10.486Z,100375.06
2022-11-08T21:29:37.130Z,100376.66
2022-11-08T21:32:04.407Z,100382.03
2022-11-08T21:34:32.483Z,100373.09
2022-11-08T21:36:59.513Z,100367.09
2022-11-08T21:39:26.177Z,100370.19
2022-11-08T21:41:52.573Z,100368.91
2022-11-08T21:44:20.354Z,100374.56
2022-11-08T21:46:46.839Z,100377.25
2022-11-08T21:49:13.746Z,100368.72
2022-11-08T21:51:40.224Z,100391.75
2022-11-08T21:54:06.697Z,100382.38
2022-11-08T21:56:34.752Z,100370.31
2022-11-08T21:59:02.973Z,100376.09
2022-11-08T22:01:30.931Z,100365.94
2022-11-08T22:03:58.932Z,100356.56
2022-11-08T22:06:25.631Z,100370.88
2022-11-08T22:08:52.114Z,100380.63
2022-11-08T22:11:18.660Z,100378.13
2022-11-08T22:13:45.042Z,100380.41
2022-11-08T22:16:11.429Z,100367.44
2022-11-08T22:21:40.773Z,100385.06
2022-11-08T22:24:10.116Z,100379.44
2022-11-08T22:26:37.427Z,100382.97
2022-11-08T22:29:04.077Z,100367.91
2022-11-08T22:31:31.341Z,100376.75
2022-11-08T22:33:58.561Z,100378.78
2022-11-08T22:36:24.972Z,100376.53
2022-11-08T22:38:51.598Z,100362.34
2022-11-08T22:41:20.215Z,100367.53
2022-11-08T22:43:47.238Z,100381.56
2022-11-08T22:46:13.937Z,100378.88
2022-11-08T22:48:40.743Z,100354.97
2022-11-08T22:51:07.649Z,100367.47
2022-11-08T22:53:34.125Z,100364.72
2022-11-08T22:56:00.916Z,100375.28
2022-11-08T22:58:28.553Z,100356.56
2022-11-08T23:00:55.486Z,100348.47
2022-11-08T23:03:22.921Z,100365.34
2022-11-08T23:05:50.985Z,100364.53
2022-11-08T23:08:19.261Z,100359.97
2022-11-08T23:11:04.953Z,100356.00
2022-11-08T23:13:50.387Z,100358.88
2022-11-08T23:16:32.258Z,100352.19
2022-11-08T23:19:18.864Z,100368.63
2022-11-08T23:22:04.111Z,100345.91
2022-11-08T23:24:31.578Z,100360.25
2022-11-08T23:27:20.685Z,100370.38
2022-11-08T23:30:05.919Z,100373.22
2022-11-08T23:32:33.281Z,100365.88
2022-11-08T23:34:59.685Z,100361.66
2022-11-08T23:37:27.165Z,100361.09
2022-11-08T23:40:12.502Z,100379.53
2022-11-08T23:42:57.628Z,100377.22
2022-11-08T23:45:24.052Z,100372.50
2022-11-08T23:47:51.681Z,100382.03
2022-11-08T23:50:18.164Z,100375.38
2022-11-08T23:52:44.759Z,100384.91
2022-11-08T23:55:11.155Z,100385.97
2022-11-08T23:57:37.585Z,100384.28
